Time;durP1;ratioP1;P1;durP2;ratioP2;P2;SDS_P1;SDS_P2;PMS_P1;PMS_P2;Temp;Humidity;BMP_temperature;BMP_pressure;BME280_temperature;BME280_humidity;BME280_pressure;Samples;Min_cycle;Max_cycle;Signal;HPM_P1;HPM_P2
2022/09/14 00:02:19;;;;;;;6.70;2.95;;;24.30;75.20;;;;;;7376235;19;20345;-84
2022/09/14 00:04:50;;;;;;;11.10;3.97;;;24.40;75.10;;;;;;7376510;19;20022;-84
2022/09/14 00:07:18;;;;;;;8.13;3.80;;;24.40;75.10;;;;;;7383756;19;20018;-84
2022/09/14 00:09:50;;;;;;;8.35;3.90;;;24.40;75.00;;;;;;7399222;19;20433;-84
2022/09/14 00:12:19;;;;;;;8.75;3.63;;;24.40;74.80;;;;;;7411789;19;20104;-83
2022/09/14 00:14:48;;;;;;;9.43;3.97;;;24.40;75.00;;;;;;7381050;19;20015;-83
2022/09/14 00:17:17;;;;;;;15.80;3.70;;;24.50;75.00;;;;;;7379805;19;20022;-85
2022/09/14 00:19:46;;;;;;;8.70;3.35;;;24.40;75.10;;;;;;7380832;19;20014;-84
2022/09/14 00:22:15;;;;;;;9.00;3.83;;;24.40;75.30;;;;;;7380612;19;20014;-84
2022/09/14 00:24:44;;;;;;;10.65;4.03;;;24.40;75.40;;;;;;7384720;19;20015;-83
2022/09/14 00:27:15;;;;;;;10.43;3.78;;;24.40;75.50;;;;;;7401120;19;20442;-85
2022/09/14 00:29:44;;;;;;;;;;;24.30;75.90;;;;;;7380175;19;20054;-85
2022/09/14 00:32:13;;;;;;;6.53;3.70;;;24.30;76.00;;;;;;7377543;19;19914;-85
2022/09/14 00:34:41;;;;;;;8.80;3.95;;;24.30;76.10;;;;;;7377695;19;20098;-84
2022/09/14 00:37:10;;;;;;;10.45;3.72;;;24.30;76.10;;;;;;7376487;19;20018;-84
2022/09/14 00:39:39;;;;;;;9.32;3.10;;;24.20;76.40;;;;;;7400010;19;20022;-85
2022/09/14 00:42:08;;;;;;;10.65;3.45;;;24.30;76.60;;;;;;7373397;19;20035;-84
2022/09/14 00:45:13;;;;;;;7.82;3.60;;;24.30;76.70;;;;;;7374654;19;20022;-83
2022/09/14 00:47:44;;;;;;;12.00;3.72;;;24.30;76.40;;;;;;7376821;19;20010;-84
2022/09/14 00:50:14;;;;;;;10.40;3.85;;;24.20;76.00;;;;;;7376645;19;20335;-84
2022/09/14 00:52:46;;;;;;;11.82;3.65;;;24.30;76.10;;;;;;7378135;19;20513;-84
2022/09/14 00:55:18;;;;;;;12.30;3.50;;;24.30;76.00;;;;;;7382757;19;20055;-84
2022/09/14 00:57:50;;;;;;;8.18;3.35;;;24.30;75.50;;;;;;7381572;19;20027;-85
2022/09/14 01:00:23;;;;;;;9.68;3.30;;;24.20;75.20;;;;;;7398217;19;20019;-85
2022/09/14 01:02:54;;;;;;;8.70;2.60;;;24.10;74.40;;;;;;7372927;19;20356;-84
2022/09/14 01:05:38;;;;;;;11.30;3.03;;;24.00;74.40;;;;;;7373954;19;20021;-84
2022/09/14 01:08:23;;;;;;;10.70;2.63;;;24.10;73.90;;;;;;7372803;19;20085;-84
2022/09/14 01:11:04;;;;;;;11.90;2.80;;;24.10;74.30;;;;;;7372133;19;20331;-85
2022/09/14 01:13:43;;;;;;;9.95;2.70;;;24.20;73.60;;;;;;7375100;19;20027;-84
2022/09/14 01:16:22;;;;;;;10.68;3.33;;;24.30;73.50;;;;;;7373522;19;20081;-85
2022/09/14 01:18:58;;;;;;;11.70;3.05;;;24.20;73.20;;;;;;7373869;19;20090;-83
2022/09/14 01:21:30;;;;;;;5.18;2.30;;;24.20;73.60;;;;;;7400364;19;20035;-84
2022/09/14 01:24:07;;;;;;;10.38;2.60;;;24.20;74.30;;;;;;7375675;19;20011;-84
2022/09/14 01:26:58;;;;;;;4.95;2.70;;;24.10;72.90;;;;;;7371138;19;20022;-84
2022/09/14 01:29:33;;;;;;;8.57;2.70;;;24.20;73.30;;;;;;7372863;19;20174;-84
2022/09/14 01:32:07;;;;;;;7.00;2.90;;;24.30;73.60;;;;;;7373162;19;20011;-84
2022/09/14 01:34:40;;;;;;;8.13;2.78;;;24.30;73.70;;;;;;7382821;19;20014;-84
2022/09/14 01:37:13;;;;;;;7.68;2.60;;;24.30;73.20;;;;;;7397313;19;20610;-85
2022/09/14 01:39:45;;;;;;;9.77;2.60;;;24.30;73.60;;;;;;7394645;19;20079;-84
2022/09/14 01:42:14;;;;;;;7.47;2.72;;;24.20;73.80;;;;;;7396160;19;20014;-84
2022/09/14 01:44:49;;;;;;;7.70;2.60;;;24.10;72.20;;;;;;7374653;19;20019;-84
2022/09/14 01:47:22;;;;;;;8.93;2.92;;;24.10;73.00;;;;;;7373949;19;20458;-84
2022/09/14 01:49:55;;;;;;;10.70;2.80;;;24.00;73.90;;;;;;7381201;19;20015;-85
2022/09/14 01:52:27;;;;;;;8.30;2.30;;;23.90;74.00;;;;;;7380105;19;20073;-84
2022/09/14 01:55:00;;;;;;;7.93;2.20;;;23.70;73.60;;;;;;7376721;19;20018;-84
2022/09/14 01:57:35;;;;;;;8.45;2.35;;;23.80;73.80;;;;;;7390322;19;20031;-84
2022/09/14 02:00:11;;;;;;;6.50;2.40;;;23.90;74.20;;;;;;7371228;19;20349;-84
2022/09/14 02:02:45;;;;;;;8.48;3.17;;;23.90;74.60;;;;;;7370904;19;20434;-85
2022/09/14 02:05:19;;;;;;;10.25;2.80;;;23.90;74.70;;;;;;7371487;19;20015;-84
2022/09/14 02:07:48;;;;;;;8.75;2.45;;;23.90;74.60;;;;;;7376098;19;20011;-84
2022/09/14 02:10:18;;;;;;;6.63;2.80;;;24.00;74.10;;;;;;7382043;19;20019;-85
2022/09/14 02:12:47;;;;;;;5.32;2.72;;;24.00;73.90;;;;;;7395222;19;20006;-83
2022/09/14 02:15:19;;;;;;;7.45;2.63;;;24.00;74.10;;;;;;7412930;19;20031;-84
2022/09/14 02:17:48;;;;;;;7.32;3.00;;;24.00;74.40;;;;;;7386678;19;20032;-85
2022/09/14 02:23:05;;;;;;;11.50;2.50;;;23.90;74.40;;;;;;7409324;19;20357;-85
2022/09/14 02:25:35;;;;;;;10.05;2.90;;;23.90;74.90;;;;;;7408452;19;20010;-85
2022/09/14 02:28:04;;;;;;;5.72;2.90;;;23.90;74.80;;;;;;7406668;19;20025;-84
2022/09/14 02:30:43;;;;;;;16.30;3.75;;;23.90;74.70;;;;;;7427141;19;20685;-83
2022/09/14 02:33:17;;;;;;;9.38;2.80;;;23.90;74.80;;;;;;7408745;19;20014;-83
2022/09/14 02:35:52;;;;;;;5.95;2.47;;;23.90;75.20;;;;;;7407727;19;20066;-84
2022/09/14 02:38:34;;;;;;;8.13;2.83;;;23.90;74.80;;;;;;7410220;19;20093;-83
2022/09/14 02:41:09;;;;;;;10.15;2.50;;;23.90;75.00;;;;;;7410055;19;20383;-83
2022/09/14 02:43:49;;;;;;;9.18;2.60;;;23.90;74.90;;;;;;7412121;19;20017;-83
2022/09/14 02:46:23;;;;;;;10.00;2.88;;;23.80;75.10;;;;;;7418072;19;20018;-83
2022/09/14 02:49:05;;;;;;;11.48;3.58;;;23.90;75.00;;;;;;7411314;19;20077;-83
2022/09/14 02:51:39;;;;;;;11.55;3.25;;;23.80;75.00;;;;;;7434565;19;20029;-83
2022/09/14 02:54:16;;;;;;;9.98;3.58;;;23.80;75.50;;;;;;7411512;19;20041;-85
2022/09/14 02:56:46;;;;;;;14.02;3.33;;;23.80;75.60;;;;;;7414515;19;20038;-83
2022/09/14 02:59:15;;;;;;;8.15;2.97;;;23.70;75.30;;;;;;7421128;19;20010;-83
2022/09/14 03:01:43;;;;;;;8.70;3.20;;;23.60;75.20;;;;;;7416158;19;20014;-83
2022/09/14 03:04:12;;;;;;;11.00;3.30;;;23.60;75.60;;;;;;7431568;19;20071;-85
2022/09/14 03:06:41;;;;;;;8.40;3.30;;;23.60;75.60;;;;;;7449030;19;20035;-82
2022/09/14 03:09:12;;;;;;;5.35;2.95;;;23.60;76.10;;;;;;7431910;19;20078;-85
2022/09/14 03:11:41;;;;;;;15.40;3.00;;;23.70;76.10;;;;;;7412241;19;20014;-85
2022/09/14 03:14:11;;;;;;;10.43;2.90;;;23.70;75.90;;;;;;7415515;19;20015;-83
2022/09/14 03:16:40;;;;;;;13.32;2.80;;;23.70;75.60;;;;;;7420611;19;20018;-84
2022/09/14 03:19:11;;;;;;;11.00;3.10;;;23.70;75.60;;;;;;7420723;19;20014;-83
2022/09/14 03:21:40;;;;;;;10.40;2.80;;;23.50;75.20;;;;;;7440309;19;20014;-83
2022/09/14 03:24:12;;;;;;;8.93;3.00;;;23.60;75.40;;;;;;7417245;19;20014;-83
2022/09/14 03:26:40;;;;;;;15.00;3.10;;;23.60;75.80;;;;;;7417376;19;20422;-84
2022/09/14 03:29:09;;;;;;;4.03;2.70;;;23.50;75.70;;;;;;7413226;19;20489;-84
2022/09/14 03:31:38;;;;;;;5.25;2.75;;;23.50;75.90;;;;;;7412441;19;20031;-83
2022/09/14 03:34:07;;;;;;;8.45;2.75;;;23.50;75.60;;;;;;7385609;19;20074;-83
2022/09/14 03:36:36;;;;;;;8.35;2.80;;;23.50;76.10;;;;;;7407939;19;20078;-83
2022/09/14 03:39:05;;;;;;;14.55;3.40;;;23.50;76.00;;;;;;7381613;19;20525;-85
2022/09/14 03:41:36;;;;;;;13.07;3.25;;;23.60;76.20;;;;;;7386403;19;20434;-85
2022/09/14 03:44:04;;;;;;;;;;;23.40;76.00;;;;;;7382997;19;20011;-85
2022/09/14 03:46:34;;;;;;;9.60;3.08;;;23.40;75.90;;;;;;7381702;19;19926;-85
2022/09/14 03:49:03;;;;;;;9.38;3.45;;;23.40;76.00;;;;;;7376141;19;20018;-84
2022/09/14 03:51:31;;;;;;;7.88;3.00;;;23.50;76.00;;;;;;7398152;19;20039;-84
2022/09/14 03:54:00;;;;;;;14.25;3.45;;;23.40;76.00;;;;;;7375806;19;20015;-84
2022/09/14 03:56:29;;;;;;;12.30;3.47;;;23.50;75.80;;;;;;7377730;19;20101;-84
2022/09/14 03:59:03;;;;;;;5.82;2.95;;;23.50;75.90;;;;;;7379539;19;20014;-85
2022/09/14 04:01:32;;;;;;;8.63;3.15;;;23.40;76.10;;;;;;7380753;19;20010;-84
2022/09/14 04:04:00;;;;;;;12.15;3.53;;;23.40;75.70;;;;;;7380528;19;22306;-84
2022/09/14 04:06:31;;;;;;;7.70;3.05;;;23.30;75.80;;;;;;7404281;19;20058;-84
2022/09/14 04:09:00;;;;;;;7.55;3.10;;;23.30;75.90;;;;;;7385733;19;20485;-84
2022/09/14 04:11:30;;;;;;;7.25;3.35;;;23.30;75.90;;;;;;7380972;19;20646;-83
2022/09/14 04:14:03;;;;;;;11.77;3.28;;;23.40;75.70;;;;;;7379973;19;20030;-84
2022/09/14 04:16:32;;;;;;;11.90;4.00;;;23.40;75.70;;;;;;7379637;19;20018;-84
2022/09/14 04:19:01;;;;;;;8.25;3.28;;;23.40;75.40;;;;;;7383310;19;20026;-83
2022/09/14 04:21:30;;;;;;;9.68;3.00;;;23.30;75.60;;;;;;7400774;19;20022;-84
2022/09/14 04:23:59;;;;;;;16.00;3.78;;;23.40;75.40;;;;;;7375159;19;20031;-84
2022/09/14 04:26:30;;;;;;;9.93;3.35;;;23.10;76.10;;;;;;7374825;19;20442;-83
2022/09/14 04:29:01;;;;;;;9.98;3.72;;;23.20;76.30;;;;;;7379741;19;20011;-83
2022/09/14 04:31:30;;;;;;;;;;;23.10;76.30;;;;;;7394495;19;20038;-83
2022/09/14 04:33:59;;;;;;;12.60;3.03;;;23.20;76.10;;;;;;7401513;19;19919;-84
2022/09/14 04:36:29;;;;;;;8.57;3.00;;;23.20;76.10;;;;;;7408979;19;20122;-83
2022/09/14 04:39:00;;;;;;;12.93;3.58;;;23.30;76.20;;;;;;7380465;19;20330;-83
2022/09/14 04:41:30;;;;;;;9.60;3.72;;;23.20;76.30;;;;;;7375712;19;20077;-83
2022/09/14 04:44:02;;;;;;;11.77;4.70;;;23.20;76.30;;;;;;7379286;19;20019;-83
2022/09/14 04:46:33;;;;;;;14.23;3.90;;;23.20;76.00;;;;;;7380453;19;20727;-83
2022/09/14 04:49:02;;;;;;;14.38;3.28;;;23.20;76.40;;;;;;7381717;19;20007;-83
2022/09/14 04:51:35;;;;;;;6.68;3.28;;;23.20;76.20;;;;;;7400632;19;20426;-84
2022/09/14 04:54:06;;;;;;;10.77;3.55;;;23.30;76.10;;;;;;7374950;19;20038;-83
2022/09/14 04:56:37;;;;;;;11.40;3.60;;;23.20;76.10;;;;;;7375300;19;20439;-83
2022/09/14 04:59:09;;;;;;;15.63;3.60;;;23.30;76.00;;;;;;7380320;19;20010;-83
2022/09/14 05:01:40;;;;;;;18.63;3.85;;;23.20;76.10;;;;;;7381030;19;20143;-83
2022/09/14 05:04:10;;;;;;;12.15;3.47;;;23.30;76.00;;;;;;7386452;19;20083;-83
2022/09/14 05:06:40;;;;;;;14.65;4.10;;;23.20;76.20;;;;;;7401468;19;20081;-83
2022/09/14 05:09:13;;;;;;;6.30;3.20;;;23.30;76.10;;;;;;7377279;19;20018;-83
2022/09/14 05:11:42;;;;;;;12.05;3.95;;;23.30;76.00;;;;;;7378160;19;20014;-83
2022/09/14 05:14:15;;;;;;;16.92;4.30;;;23.20;76.20;;;;;;7377215;19;20105;-84
2022/09/14 05:16:49;;;;;;;15.57;4.43;;;23.10;76.60;;;;;;7377843;19;20131;-83
2022/09/14 05:19:19;;;;;;;13.18;4.60;;;23.10;76.90;;;;;;7385965;19;20006;-84
2022/09/14 05:21:48;;;;;;;12.35;4.25;;;23.20;76.70;;;;;;7379544;19;20018;-83
2022/09/14 05:24:19;;;;;;;14.05;4.10;;;23.20;76.50;;;;;;7397230;19;20073;-84
2022/09/14 05:26:49;;;;;;;8.38;4.00;;;23.20;76.40;;;;;;7373488;19;20600;-84
2022/09/14 05:29:20;;;;;;;17.27;4.78;;;23.10;76.70;;;;;;7374950;19;20050;-84
2022/09/14 05:31:49;;;;;;;7.30;4.30;;;23.10;76.60;;;;;;7380797;19;20086;-84
2022/09/14 05:34:18;;;;;;;8.88;3.90;;;23.20;76.70;;;;;;7377800;19;20026;-84
2022/09/14 05:36:47;;;;;;;13.45;4.30;;;23.20;76.70;;;;;;7374894;19;20426;-84
2022/09/14 05:39:16;;;;;;;7.88;3.80;;;23.20;76.80;;;;;;7391639;19;20446;-84
2022/09/14 05:41:45;;;;;;;11.32;3.85;;;23.30;76.90;;;;;;7375038;19;20027;-84
2022/09/14 05:44:13;;;;;;;11.98;4.57;;;23.30;76.80;;;;;;7374793;19;20006;-84
2022/09/14 05:46:45;;;;;;;12.88;4.03;;;23.10;76.70;;;;;;7374021;19;20090;-84
2022/09/14 05:49:14;;;;;;;13.60;4.22;;;23.10;77.20;;;;;;7374785;19;20458;-84
2022/09/14 05:51:42;;;;;;;12.20;3.60;;;23.10;77.10;;;;;;7380122;19;20179;-83
2022/09/14 05:54:11;;;;;;;16.50;4.25;;;23.20;77.20;;;;;;7397377;19;20081;-85
2022/09/14 05:56:40;;;;;;;8.30;4.10;;;23.30;77.10;;;;;;7385790;19;20037;-85
2022/09/14 05:59:09;;;;;;;14.20;4.05;;;23.30;77.10;;;;;;7409247;19;20003;-84
2022/09/14 06:01:38;;;;;;;9.20;4.20;;;23.30;77.00;;;;;;7399026;19;21494;-84
2022/09/14 06:04:11;;;;;;;14.60;4.05;;;23.40;76.90;;;;;;7387470;19;20006;-84
2022/09/14 06:06:40;;;;;;;14.30;3.90;;;23.40;77.00;;;;;;7401723;19;20391;-84
2022/09/14 06:09:09;;;;;;;11.32;3.80;;;23.40;76.80;;;;;;7378640;19;20090;-84
2022/09/14 06:11:38;;;;;;;9.15;3.78;;;23.30;76.90;;;;;;7378568;19;20018;-84
2022/09/14 06:14:07;;;;;;;10.43;3.67;;;23.40;77.80;;;;;;7376226;19;20013;-84
2022/09/14 06:16:36;;;;;;;10.73;4.03;;;23.40;76.90;;;;;;7375203;19;20345;-83
2022/09/14 06:19:06;;;;;;;9.82;3.75;;;23.40;76.90;;;;;;7376421;19;20078;-84
2022/09/14 06:21:37;;;;;;;7.97;3.83;;;23.50;76.80;;;;;;7397912;19;20014;-84
2022/09/14 06:24:06;;;;;;;15.15;3.88;;;23.40;76.70;;;;;;7386299;19;20031;-84
2022/09/14 06:26:35;;;;;;;12.52;3.83;;;23.50;76.90;;;;;;7390189;19;20026;-85
2022/09/14 06:29:04;;;;;;;11.05;4.25;;;23.40;76.80;;;;;;7382700;19;20018;-86
2022/09/14 06:31:33;;;;;;;11.30;4.43;;;23.50;76.70;;;;;;7380419;19;20018;-84
2022/09/14 06:34:02;;;;;;;9.32;4.28;;;23.50;76.20;;;;;;7384222;19;20023;-83
2022/09/14 06:36:31;;;;;;;14.82;4.55;;;23.50;76.60;;;;;;7403209;19;20074;-84
2022/09/14 06:39:03;;;;;;;21.80;5.20;;;23.30;76.60;;;;;;7377790;19;20031;-85
2022/09/14 06:41:33;;;;;;;9.75;4.45;;;23.20;77.00;;;;;;7376526;19;20102;-84
2022/09/14 06:44:03;;;;;;;16.73;4.35;;;23.30;77.50;;;;;;7375161;19;20011;-84
2022/09/14 06:46:34;;;;;;;14.27;4.40;;;23.30;77.30;;;;;;7377130;19;20011;-85
2022/09/14 06:49:05;;;;;;;10.88;4.05;;;23.40;77.20;;;;;;7376631;19;20123;-84
2022/09/14 06:51:36;;;;;;;11.75;4.25;;;23.50;77.10;;;;;;7401288;19;20044;-84
2022/09/14 06:54:08;;;;;;;10.05;3.97;;;23.60;76.90;;;;;;7387084;19;20078;-84
2022/09/14 06:56:39;;;;;;;14.40;4.20;;;23.60;77.00;;;;;;7384604;19;20094;-84
2022/09/14 06:59:09;;;;;;;;;;;23.60;76.80;;;;;;7388089;19;20014;-84
2022/09/14 07:01:38;;;;;;;13.60;4.53;;;23.60;76.90;;;;;;7389620;19;19930;-84
2022/09/14 07:04:07;;;;;;;13.30;4.57;;;23.70;76.60;;;;;;7385221;19;20015;-85
2022/09/14 07:06:42;;;;;;;10.77;4.30;;;23.80;76.30;;;;;;7401686;19;20018;-84
2022/09/14 07:09:14;;;;;;;10.13;3.83;;;23.80;76.50;;;;;;7386191;19;20414;-84
2022/09/14 07:11:43;;;;;;;11.50;4.45;;;23.80;76.50;;;;;;7385196;19;20097;-85
2022/09/14 07:14:13;;;;;;;12.23;4.60;;;23.90;76.10;;;;;;7384203;19;20014;-84
2022/09/14 07:16:43;;;;;;;10.32;3.92;;;23.90;76.10;;;;;;7383272;19;20086;-84
2022/09/14 07:19:13;;;;;;;16.40;4.40;;;23.80;76.00;;;;;;7384426;19;20057;-84
2022/09/14 07:21:43;;;;;;;12.05;4.05;;;23.80;76.30;;;;;;7402780;19;20015;-83
2022/09/14 07:24:15;;;;;;;17.63;4.60;;;23.80;75.80;;;;;;7414415;19;20038;-84
2022/09/14 07:26:45;;;;;;;11.60;4.40;;;23.70;75.90;;;;;;7404298;19;20041;-83
2022/09/14 07:29:16;;;;;;;10.70;4.60;;;23.60;76.20;;;;;;7398992;19;20588;-83
2022/09/14 07:31:46;;;;;;;8.98;4.20;;;23.50;76.20;;;;;;7390121;19;20031;-83
2022/09/14 07:34:17;;;;;;;8.02;4.30;;;23.60;76.50;;;;;;7388232;19;20014;-84
2022/09/14 07:36:46;;;;;;;10.57;4.55;;;23.50;76.10;;;;;;7383580;19;20070;-84
2022/09/14 07:39:20;;;;;;;10.50;4.20;;;23.50;76.50;;;;;;7404225;19;20392;-84
2022/09/14 07:41:49;;;;;;;11.40;4.05;;;23.40;76.40;;;;;;7381170;19;20018;-84
2022/09/14 07:44:19;;;;;;;10.00;4.85;;;23.30;77.30;;;;;;7378052;19;20082;-84
2022/09/14 07:46:48;;;;;;;8.07;4.13;;;23.10;77.30;;;;;;7382349;19;20031;-83
2022/09/14 07:49:18;;;;;;;13.77;4.13;;;23.40;77.50;;;;;;7387507;19;20089;-84
2022/09/14 07:51:47;;;;;;;15.85;4.30;;;23.50;76.90;;;;;;7389121;19;20015;-84
2022/09/14 07:54:20;;;;;;;9.80;3.65;;;23.40;76.90;;;;;;7403846;19;20176;-83
2022/09/14 07:56:49;;;;;;;11.23;4.30;;;23.40;76.80;;;;;;7380409;19;20027;-83
2022/09/14 07:59:18;;;;;;;8.98;3.72;;;23.30;77.10;;;;;;7384832;19;20078;-83
2022/09/14 08:01:48;;;;;;;13.05;3.90;;;23.50;76.30;;;;;;7392144;19;20006;-83
2022/09/14 08:04:17;;;;;;;8.52;3.65;;;23.70;75.80;;;;;;7395524;19;20014;-85
2022/09/14 08:06:46;;;;;;;6.90;3.17;;;23.90;75.60;;;;;;7387152;19;20020;-82
2022/09/14 08:09:18;;;;;;;11.15;4.03;;;24.10;75.30;;;;;;7405914;19;20015;-84
2022/09/14 08:11:46;;;;;;;10.52;3.67;;;23.70;75.40;;;;;;7385404;19;20020;-83
2022/09/14 08:14:15;;;;;;;16.90;4.05;;;23.70;75.50;;;;;;7385576;19;20086;-83
2022/09/14 08:16:44;;;;;;;18.27;4.80;;;23.50;75.90;;;;;;7390237;19;20027;-83
2022/09/14 08:19:17;;;;;;;7.90;3.85;;;23.40;75.80;;;;;;7384024;19;20018;-83
2022/09/14 08:21:46;;;;;;;11.48;3.70;;;23.40;75.70;;;;;;7379184;19;20396;-83
2022/09/14 08:24:19;;;;;;;6.45;3.45;;;23.40;76.10;;;;;;7397278;19;20018;-83
2022/09/14 08:26:49;;;;;;;7.10;3.97;;;23.30;76.20;;;;;;7377987;19;20091;-83
2022/09/14 08:29:19;;;;;;;7.93;3.97;;;23.50;76.10;;;;;;7378441;19;20502;-84
2022/09/14 08:31:50;;;;;;;12.35;3.85;;;23.50;75.80;;;;;;7379870;19;20018;-84
2022/09/14 08:34:20;;;;;;;7.30;3.70;;;23.60;75.90;;;;;;7378422;19;20109;-84
2022/09/14 08:36:50;;;;;;;10.82;3.88;;;23.70;75.40;;;;;;7380674;19;20022;-83
2022/09/14 08:39:21;;;;;;;7.65;3.50;;;23.90;74.80;;;;;;7408426;19;20011;-84
2022/09/14 08:41:54;;;;;;;9.40;3.83;;;23.90;74.50;;;;;;7386472;19;20018;-84
2022/09/14 08:44:28;;;;;;;11.30;3.65;;;24.10;74.40;;;;;;7385272;19;20078;-83
2022/09/14 08:47:02;;;;;;;8.73;4.30;;;24.10;73.40;;;;;;7381331;19;20011;-84
2022/09/14 08:49:44;;;;;;;10.55;3.85;;;23.90;73.60;;;;;;7379313;19;20015;-84
2022/09/14 08:52:19;;;;;;;12.60;3.80;;;23.90;74.30;;;;;;7387110;19;20010;-84
2022/09/14 08:54:55;;;;;;;12.00;3.90;;;24.00;74.40;;;;;;7383569;19;20410;-84
2022/09/14 08:57:30;;;;;;;10.35;4.28;;;24.10;73.70;;;;;;7402113;19;20710;-84
2022/09/14 09:00:08;;;;;;;6.80;3.17;;;24.30;73.50;;;;;;7380067;19;20351;-84
2022/09/14 09:02:59;;;;;;;10.32;3.78;;;24.50;72.90;;;;;;7381506;19;20003;-84
2022/09/14 09:05:37;;;;;;;13.90;3.78;;;24.10;72.70;;;;;;7380876;19;20064;-85
2022/09/14 09:08:15;;;;;;;12.40;3.70;;;24.10;73.70;;;;;;7385138;19;20022;-84
2022/09/14 09:10:49;;;;;;;11.05;3.40;;;24.30;73.20;;;;;;7390328;19;20007;-84
2022/09/14 09:13:22;;;;;;;10.75;3.70;;;24.50;72.00;;;;;;7387261;19;20027;-84
2022/09/14 09:15:53;;;;;;;7.57;3.33;;;24.30;71.20;;;;;;7384461;19;20010;-84
2022/09/14 09:18:28;;;;;;;9.68;3.08;;;24.20;72.10;;;;;;7407578;19;20593;-84
2022/09/14 09:21:01;;;;;;;13.48;3.53;;;24.20;72.10;;;;;;7388496;19;20085;-85
2022/09/14 09:23:32;;;;;;;8.30;3.45;;;24.20;72.70;;;;;;7379329;19;20094;-84
2022/09/14 09:26:08;;;;;;;8.43;3.10;;;24.40;72.30;;;;;;7382379;19;20149;-84
2022/09/14 09:28:42;;;;;;;10.32;3.33;;;24.30;71.70;;;;;;7381391;19;20019;-83
2022/09/14 09:31:15;;;;;;;9.25;2.92;;;24.10;71.10;;;;;;7377085;19;20006;-84
2022/09/14 09:33:44;;;;;;;6.53;2.65;;;24.10;70.80;;;;;;7380417;19;20022;-84
2022/09/14 09:36:15;;;;;;;7.10;2.83;;;24.20;70.90;;;;;;7405362;19;20010;-85
2022/09/14 09:38:44;;;;;;;;;;;24.40;71.00;;;;;;7388380;19;20014;-85
2022/09/14 09:41:22;;;;;;;9.40;3.00;;;24.60;71.10;;;;;;7382309;19;19918;-84
2022/09/14 09:44:05;;;;;;;7.93;2.70;;;24.80;70.10;;;;;;7391613;19;20016;-84
2022/09/14 09:46:37;;;;;;;10.27;2.88;;;24.80;69.80;;;;;;7403626;19;20098;-83
2022/09/14 09:49:20;;;;;;;7.82;2.28;;;24.90;68.80;;;;;;7395841;19;20058;-83
2022/09/14 09:51:50;;;;;;;7.28;2.40;;;24.80;66.90;;;;;;7388015;19;20017;-84
2022/09/14 09:54:26;;;;;;;5.53;2.47;;;24.90;67.90;;;;;;7398639;19;20015;-85
2022/09/14 09:57:01;;;;;;;3.70;2.30;;;24.90;67.20;;;;;;7379114;19;20022;-84
2022/09/14 09:59:34;;;;;;;5.07;2.10;;;24.50;67.70;;;;;;7381677;19;20011;-84
2022/09/14 10:02:29;;;;;;;6.30;2.20;;;24.60;67.00;;;;;;7389066;19;20024;-83
2022/09/14 10:05:00;;;;;;;9.60;2.60;;;24.30;68.50;;;;;;7393093;19;20034;-84
2022/09/14 10:07:31;;;;;;;6.75;2.15;;;24.50;68.10;;;;;;7387280;19;20002;-85
2022/09/14 10:10:04;;;;;;;6.95;2.60;;;24.60;67.50;;;;;;7383953;19;20007;-85
2022/09/14 10:12:38;;;;;;;4.38;2.10;;;24.60;66.70;;;;;;7405628;19;20053;-84
2022/09/14 10:15:18;;;;;;;4.28;1.98;;;24.50;66.60;;;;;;7382351;19;20027;-84
2022/09/14 10:18:08;;;;;;;8.63;1.83;;;24.60;65.60;;;;;;7383013;19;20014;-85
2022/09/14 10:20:38;;;;;;;3.15;1.70;;;24.60;64.90;;;;;;7380866;19;20007;-83
2022/09/14 10:23:26;;;;;;;3.23;1.87;;;24.60;65.10;;;;;;7382556;19;20153;-83
2022/09/14 10:26:18;;;;;;;2.30;1.60;;;24.60;65.00;;;;;;7385638;19;20089;-83
2022/09/14 10:28:51;;;;;;;5.30;1.73;;;24.60;63.30;;;;;;7378870;19;20067;-83
2022/09/14 10:31:31;;;;;;;3.33;1.67;;;24.90;63.10;;;;;;7385923;19;20010;-83
2022/09/14 10:34:00;;;;;;;4.13;1.35;;;24.70;61.90;;;;;;7388895;19;20015;-84
2022/09/14 10:36:31;;;;;;;4.65;1.50;;;24.70;62.90;;;;;;7407935;19;20006;-84
2022/09/14 10:39:09;;;;;;;5.90;1.55;;;25.00;62.80;;;;;;7385984;19;20015;-84
2022/09/14 10:41:47;;;;;;;2.22;1.80;;;24.90;62.50;;;;;;7387961;19;20011;-84
2022/09/14 10:44:55;;;;;;;4.60;1.65;;;25.10;62.50;;;;;;7400342;19;20072;-83
2022/09/14 10:47:47;;;;;;;2.92;1.30;;;24.80;63.10;;;;;;7388148;19;20011;-86
2022/09/14 10:50:29;;;;;;;2.38;1.40;;;24.90;62.30;;;;;;7386805;19;20028;-83
2022/09/14 10:53:11;;;;;;;3.13;1.52;;;24.80;61.00;;;;;;7386710;19;21020;-84
2022/09/14 10:55:47;;;;;;;3.00;1.33;;;24.70;62.40;;;;;;7389889;19;20031;-83
2022/09/14 10:58:35;;;;;;;3.50;1.40;;;24.70;62.20;;;;;;7388679;19;20014;-83
2022/09/14 11:01:35;;;;;;;2.95;1.30;;;25.10;61.90;;;;;;7387538;19;20982;-85
2022/09/14 11:04:20;;;;;;;1.80;1.48;;;25.30;60.50;;;;;;7382776;19;20685;-83
2022/09/14 11:07:01;;;;;;;5.32;1.58;;;25.10;61.00;;;;;;7385536;19;20031;-83
2022/09/14 11:09:36;;;;;;;2.70;1.58;;;25.00;60.70;;;;;;7405057;19;20035;-83
2022/09/14 11:12:16;;;;;;;5.47;1.63;;;24.90;61.10;;;;;;7385669;19;20010;-84
2022/09/14 11:15:08;;;;;;;3.33;1.58;;;25.10;62.40;;;;;;7383985;19;20038;-84
2022/09/14 11:17:43;;;;;;;;;;;25.20;63.40;;;;;;7388168;19;20478;-84
2022/09/14 11:20:25;;;;;;;4.03;2.03;;;25.40;62.80;;;;;;7388403;19;19922;-84
2022/09/14 11:23:05;;;;;;;6.75;1.55;;;25.70;62.60;;;;;;7397417;19;20002;-84
2022/09/14 11:25:42;;;;;;;3.85;1.92;;;25.90;61.70;;;;;;7387438;19;20023;-84
2022/09/14 11:28:19;;;;;;;7.68;1.92;;;25.70;62.10;;;;;;7383397;19;20471;-84
2022/09/14 11:30:57;;;;;;;9.20;1.70;;;25.70;62.70;;;;;;7382350;19;20017;-84
2022/09/14 11:33:31;;;;;;;4.55;1.80;;;25.80;63.30;;;;;;7399325;19;20014;-85
2022/09/14 11:36:04;;;;;;;7.60;2.00;;;26.00;62.10;;;;;;7380497;19;20024;-85
2022/09/14 11:38:38;;;;;;;4.78;1.83;;;25.80;62.20;;;;;;7378929;19;20014;-84
2022/09/14 11:41:21;;;;;;;4.05;1.60;;;25.70;62.40;;;;;;7386237;19;20018;-84
2022/09/14 11:43:55;;;;;;;5.78;1.88;;;25.90;62.30;;;;;;7388901;19;20010;-84
2022/09/14 11:46:29;;;;;;;4.82;1.70;;;25.90;61.90;;;;;;7387382;19;20038;-83
2022/09/14 11:49:08;;;;;;;2.90;1.60;;;25.90;61.70;;;;;;7395591;19;20035;-85
2022/09/14 11:51:42;;;;;;;5.13;1.90;;;26.10;62.00;;;;;;7415235;19;20021;-84
2022/09/14 11:54:21;;;;;;;6.32;1.90;;;26.20;62.10;;;;;;7390582;19;20078;-84
2022/09/14 11:56:52;;;;;;;2.80;1.60;;;26.20;60.70;;;;;;7390598;19;20010;-84
2022/09/14 11:59:54;;;;;;;3.38;1.50;;;26.00;60.70;;;;;;7385496;19;20067;-84
2022/09/14 12:03:00;;;;;;;4.95;1.60;;;25.90;60.10;;;;;;7389356;19;20011;-83
2022/09/14 12:05:38;;;;;;;5.20;1.55;;;25.90;60.30;;;;;;7381573;19;20028;-85
2022/09/14 12:08:29;;;;;;;5.32;1.40;;;25.70;60.30;;;;;;7380254;19;20130;-85
2022/09/14 12:11:20;;;;;;;2.35;1.60;;;26.00;60.10;;;;;;7379093;19;20010;-85
2022/09/14 12:13:49;;;;;;;4.85;1.42;;;25.90;60.00;;;;;;7385425;19;20809;-85
2022/09/14 12:16:18;;;;;;;4.68;1.73;;;25.80;60.10;;;;;;7381330;19;20059;-84
2022/09/14 12:18:48;;;;;;;10.70;2.10;;;25.70;61.60;;;;;;7376976;19;20018;-84
2022/09/14 12:21:27;;;;;;;2.10;1.30;;;26.00;60.40;;;;;;7399334;19;20011;-85
2022/09/14 12:23:56;;;;;;;3.85;1.52;;;26.20;61.20;;;;;;7378164;19;20026;-85
2022/09/14 12:26:35;;;;;;;4.05;1.80;;;26.30;59.70;;;;;;7377300;19;20023;-85
2022/09/14 12:29:39;;;;;;;8.10;1.90;;;26.20;60.60;;;;;;7375833;19;20397;-85
2022/09/14 12:32:26;;;;;;;4.38;1.70;;;26.50;59.70;;;;;;7376312;19;20039;-85
2022/09/14 12:35:34;;;;;;;4.22;1.58;;;26.50;58.70;;;;;;7375718;19;20148;-85
2022/09/14 12:38:32;;;;;;;5.60;2.03;;;26.30;58.90;;;;;;7376877;19;20335;-84
2022/09/14 12:41:28;;;;;;;3.03;1.55;;;26.10;58.90;;;;;;7386046;19;20010;-85
2022/09/14 12:46:44;;;;;;;;;;;26.00;59.40;;;;;;7376813;19;20090;-85
2022/09/14 12:49:31;;;;;;;3.47;1.58;;;26.00;59.60;;;;;;7375233;19;19914;-85
2022/09/14 12:52:22;;;;;;;5.78;1.52;;;26.00;59.30;;;;;;7391128;19;20015;-84
2022/09/14 12:55:03;;;;;;;5.70;1.50;;;26.10;59.10;;;;;;7374591;19;20014;-84
2022/09/14 12:57:45;;;;;;;9.77;1.50;;;26.30;57.50;;;;;;7402187;19;20010;-84
2022/09/14 13:00:18;;;;;;;2.30;1.30;;;26.40;57.60;;;;;;7381079;19;20081;-84
2022/09/14 13:03:17;;;;;;;2.33;1.25;;;26.60;56.90;;;;;;7377705;19;20039;-85
2022/09/14 13:05:49;;;;;;;3.92;1.20;;;26.90;56.60;;;;;;7382920;19;20098;-85
2022/09/14 13:08:24;;;;;;;3.70;1.50;;;26.90;56.00;;;;;;7378829;19;20011;-83
2022/09/14 13:10:53;;;;;;;5.05;1.50;;;26.60;56.30;;;;;;7377055;19;20320;-83
2022/09/14 13:13:32;;;;;;;5.88;1.45;;;26.60;57.80;;;;;;7379416;19;20375;-85
2022/09/14 13:16:04;;;;;;;4.38;1.25;;;26.50;56.30;;;;;;7378476;19;20078;-83
2022/09/14 13:18:35;;;;;;;4.15;1.30;;;26.50;56.30;;;;;;7412994;19;20007;-84
2022/09/14 13:21:18;;;;;;;5.38;1.40;;;26.60;56.60;;;;;;7399909;19;20018;-84
2022/09/14 13:23:47;;;;;;;4.72;1.45;;;26.60;56.50;;;;;;7393929;19;20022;-84
2022/09/14 13:26:21;;;;;;;3.92;1.50;;;26.50;56.50;;;;;;7385777;19;20035;-84